Time;durP1;ratioP1;P1;durP2;ratioP2;P2;SDS_P1;SDS_P2;PMS_P1;PMS_P2;Temp;Humidity;BMP_temperature;BMP_pressure;BME280_temperature;BME280_humidity;BME280_pressure;Samples;Min_cycle;Max_cycle;Signal;HPM_P1;HPM_P2
2022/12/10 00:01:11;;;;;;;35.75;22.77;;;;;;;5.69;55.76;100782.09;5060748;28;20450;-67
2022/12/10 00:03:39;;;;;;;31.73;20.02;;;;;;;5.68;55.96;100775.94;5054549;28;20224;-67
2022/12/10 00:06:08;;;;;;;32.45;20.80;;;;;;;5.67;55.61;100779.63;5059767;28;20108;-66
2022/12/10 00:08:36;;;;;;;33.58;20.17;;;;;;;5.67;55.77;100776.13;5061713;28;20040;-67
2022/12/10 00:11:05;;;;;;;39.30;21.23;;;;;;;5.67;55.55;100784.13;5055970;28;20171;-67
2022/12/10 00:13:36;;;;;;;36.33;21.20;;;;;;;5.66;55.42;100788.63;5057697;28;20052;-68
2022/12/10 00:16:07;;;;;;;35.63;21.00;;;;;;;5.68;55.60;100791.94;5062242;28;20131;-68
2022/12/10 00:18:35;;;;;;;34.03;20.40;;;;;;;5.64;55.86;100780.00;5060278;28;20048;-68
2022/12/10 00:21:04;;;;;;;31.42;19.25;;;;;;;5.65;55.80;100786.16;5064139;28;20059;-68
2022/12/10 00:23:33;;;;;;;35.47;21.25;;;;;;;5.65;55.46;100788.84;5057293;28;20061;-68
2022/12/10 00:26:04;;;;;;;34.28;21.23;;;;;;;5.64;55.97;100788.00;5054926;28;20041;-67
2022/12/10 00:28:32;;;;;;;35.70;20.77;;;;;;;5.65;55.63;100788.84;5060773;28;20041;-68
2022/12/10 00:31:05;;;;;;;36.20;21.10;;;;;;;5.64;55.87;100796.00;5056770;28;20045;-68
2022/12/10 00:33:33;;;;;;;38.90;22.10;;;;;;;5.65;55.58;100800.31;5067419;28;20134;-68
2022/12/10 00:36:06;;;;;;;38.38;22.15;;;;;;;5.65;55.75;100807.50;5048255;28;20041;-68
2022/12/10 00:38:34;;;;;;;30.98;20.25;;;;;;;5.63;55.65;100798.84;5052189;28;20051;-68
2022/12/10 00:41:01;;;;;;;34.67;21.67;;;;;;;5.64;55.58;100809.34;5055857;28;20136;-68
2022/12/10 00:43:29;;;;;;;38.72;22.88;;;;;;;5.55;55.51;100786.47;5054711;28;20044;-67
2022/12/10 00:45:57;;;;;;;34.53;20.98;;;;;;;5.63;55.63;100797.03;5057128;28;20060;-68
2022/12/10 00:48:26;;;;;;;34.50;20.38;;;;;;;5.61;55.60;100793.72;5063192;28;20045;-67
2022/12/10 00:50:59;;;;;;;38.42;22.02;;;;;;;5.61;55.67;100784.91;5059171;28;20068;-67
2022/12/10 00:53:28;;;;;;;35.67;20.77;;;;;;;5.60;55.55;100784.06;5062761;28;20056;-67
2022/12/10 00:55:57;;;;;;;35.38;21.67;;;;;;;5.59;55.34;100782.41;5056905;28;20049;-68
2022/12/10 00:58:27;;;;;;;35.40;21.88;;;;;;;5.59;55.41;100787.75;5061971;28;20056;-67
2022/12/10 01:00:55;;;;;;;35.17;20.42;;;;;;;5.59;55.36;100777.09;5062190;28;20135;-67
2022/12/10 01:03:23;;;;;;;35.95;21.17;;;;;;;5.59;55.30;100784.25;5061490;28;20107;-66
2022/12/10 01:05:52;;;;;;;36.03;19.75;;;;;;;5.59;55.75;100778.94;5058084;28;20131;-67
2022/12/10 01:08:20;;;;;;;32.95;21.23;;;;;;;5.58;55.58;100783.44;5057576;28;20139;-67
2022/12/10 01:10:53;;;;;;;35.72;21.05;;;;;;;5.57;55.60;100773.78;5057017;28;20055;-67
2022/12/10 01:13:21;;;;;;;30.30;19.35;;;;;;;5.54;56.00;100775.00;5065786;28;20104;-67
2022/12/10 01:15:49;;;;;;;38.22;21.67;;;;;;;5.55;55.44;100778.47;5058739;28;20048;-68
2022/12/10 01:18:16;;;;;;;38.50;22.92;;;;;;;5.55;55.67;100786.47;5066820;28;20063;-67
2022/12/10 01:20:44;;;;;;;36.58;21.55;;;;;;;5.55;55.61;100789.16;5061273;28;20051;-66
2022/12/10 01:23:13;;;;;;;33.55;20.50;;;;;;;5.54;55.54;100787.50;5060335;28;20125;-67
2022/12/10 01:25:41;;;;;;;36.90;23.05;;;;;;;5.53;55.67;100799.19;5065576;28;20482;-67
2022/12/10 01:28:08;;;;;;;36.75;22.05;;;;;;;5.54;55.83;100792.84;5056643;28;20045;-67
2022/12/10 01:30:36;;;;;;;38.00;21.15;;;;;;;5.54;55.21;100800.81;5062012;28;20124;-68
2022/12/10 01:33:04;;;;;;;35.28;20.90;;;;;;;5.53;55.65;100799.19;5062073;28;20087;-67
2022/12/10 01:35:32;;;;;;;36.13;21.52;;;;;;;5.50;55.80;100803.03;5065741;28;20045;-68
2022/12/10 01:38:00;;;;;;;36.55;21.15;;;;;;;5.51;55.84;100809.19;5062011;28;20112;-66
2022/12/10 01:40:30;;;;;;;39.78;22.73;;;;;;;5.50;55.75;100812.88;5052229;28;20052;-66
2022/12/10 01:42:57;;;;;;;37.22;21.45;;;;;;;5.52;55.59;100811.69;5064937;28;20063;-67
2022/12/10 01:45:27;;;;;;;37.08;21.67;;;;;;;5.49;55.53;100820.06;5066125;28;20053;-67
2022/12/10 01:47:55;;;;;;;36.65;21.17;;;;;;;5.51;55.82;100823.34;5061633;28;20107;-67
2022/12/10 01:50:23;;;;;;;34.28;21.17;;;;;;;5.50;55.90;100826.22;5056314;28;20065;-67
2022/12/10 01:52:51;;;;;;;36.83;21.85;;;;;;;5.47;55.99;100826.59;5061917;28;20131;-67
2022/12/10 01:55:43;;;;;;;35.17;21.73;;;;;;;5.45;55.99;100831.28;5064218;28;20049;-68
2022/12/10 01:58:11;;;;;;;36.50;20.23;;;;;;;5.44;56.45;100825.13;5054220;28;20049;-67
2022/12/10 02:00:47;;;;;;;38.20;21.98;;;;;;;5.43;56.38;100831.47;5060933;28;20064;-67
2022/12/10 02:03:21;;;;;;;36.83;20.77;;;;;;;5.43;56.42;100819.97;5064084;28;20368;-66
2022/12/10 02:05:57;;;;;;;35.13;21.55;;;;;;;5.42;56.46;100832.47;5057063;28;20055;-67
2022/12/10 02:08:31;;;;;;;34.42;20.35;;;;;;;5.41;56.46;100828.16;5054368;28;20068;-68
2022/12/10 02:11:13;;;;;;;35.80;21.98;;;;;;;5.40;56.21;100833.69;5060893;28;20056;-67
2022/12/10 02:13:44;;;;;;;36.75;20.48;;;;;;;5.39;56.43;100838.19;5063109;28;20135;-67
2022/12/10 02:16:16;;;;;;;39.97;23.27;;;;;;;5.39;56.22;100843.53;5063750;28;20060;-67
2022/12/10 02:18:50;;;;;;;37.65;22.05;;;;;;;5.42;55.94;100842.31;5055194;28;20167;-67
2022/12/10 02:21:22;;;;;;;36.97;21.75;;;;;;;5.38;55.98;100839.19;5062553;28;20135;-67
2022/12/10 02:23:55;;;;;;;39.30;22.90;;;;;;;5.37;55.69;100834.06;5059418;28;20052;-67
2022/12/10 02:26:28;;;;;;;39.58;22.05;;;;;;;5.36;56.15;100829.75;5054380;28;20139;-67
2022/12/10 02:29:12;;;;;;;39.45;23.02;;;;;;;5.35;56.27;100817.44;5056771;28;20379;-67
2022/12/10 02:31:43;;;;;;;36.83;22.13;;;;;;;5.34;55.97;100816.63;5059459;28;20121;-68
2022/12/10 02:34:13;;;;;;;37.15;21.92;;;;;;;5.35;56.36;100818.25;5061594;28;20098;-67
2022/12/10 02:36:45;;;;;;;39.13;23.25;;;;;;;5.35;56.38;100812.09;5062885;28;20060;-66
2022/12/10 02:39:16;;;;;;;39.75;22.95;;;;;;;5.34;56.06;100805.13;5055384;28;20074;-67
2022/12/10 02:41:49;;;;;;;37.72;22.73;;;;;;;5.33;56.62;100804.31;5060400;28;20057;-68
2022/12/10 02:44:21;;;;;;;39.47;21.80;;;;;;;5.33;56.64;100795.47;5063117;28;20497;-68
2022/12/10 02:46:53;;;;;;;38.58;22.42;;;;;;;5.33;56.57;100795.47;5060376;28;20056;-68
2022/12/10 02:49:22;;;;;;;38.90;21.70;;;;;;;5.29;56.88;100791.53;5062597;28;20053;-68
2022/12/10 02:51:50;;;;;;;36.83;22.08;;;;;;;5.30;56.78;100799.34;5057622;28;20045;-68
2022/12/10 02:54:39;;;;;;;42.38;22.25;;;;;;;5.28;56.86;100801.38;5063118;28;20060;-68
2022/12/10 02:57:19;;;;;;;36.40;21.52;;;;;;;5.31;56.91;100802.84;5056595;28;20057;-68
2022/12/10 03:00:01;;;;;;;38.10;21.48;;;;;;;5.28;57.12;100812.03;5054987;28;20044;-68
2022/12/10 03:02:40;;;;;;;33.67;20.60;;;;;;;5.29;56.78;100821.69;5058104;28;20047;-68
2022/12/10 03:05:17;;;;;;;38.97;21.88;;;;;;;5.29;56.75;100819.00;5060094;28;20091;-68
2022/12/10 03:07:54;;;;;;;38.55;22.15;;;;;;;5.27;56.80;100815.72;5057309;28;20132;-68
2022/12/10 03:10:28;;;;;;;39.50;21.85;;;;;;;5.29;56.28;100818.19;5055261;28;20410;-67
2022/12/10 03:13:00;;;;;;;38.13;22.73;;;;;;;5.28;56.93;100820.03;5053657;28;20075;-68
2022/12/10 03:15:33;;;;;;;38.15;22.05;;;;;;;5.28;56.25;100821.88;5054945;28;20049;-68
2022/12/10 03:18:04;;;;;;;37.03;22.00;;;;;;;5.28;56.58;100824.53;5055880;28;20049;-68
2022/12/10 03:20:33;;;;;;;37.38;21.38;;;;;;;5.24;56.99;100822.25;5063451;28;20615;-68
2022/12/10 03:23:04;;;;;;;42.90;22.05;;;;;;;5.24;56.96;100824.91;5053314;28;20056;-68
2022/12/10 03:25:33;;;;;;;34.30;20.13;;;;;;;5.26;56.57;100824.72;5055831;28;20085;-66
2022/12/10 03:28:01;;;;;;;34.95;20.70;;;;;;;5.17;57.06;100807.22;5060129;28;20048;-68
2022/12/10 03:30:33;;;;;;;35.92;21.70;;;;;;;5.26;57.00;100826.56;5061616;28;20041;-67
2022/12/10 03:33:02;;;;;;;35.70;21.85;;;;;;;5.24;57.08;100824.91;5064213;28;20051;-67
2022/12/10 03:35:30;;;;;;;33.95;20.08;;;;;;;5.24;56.91;100824.91;5063220;28;20049;-67
2022/12/10 03:37:58;;;;;;;36.90;21.45;;;;;;;5.22;56.63;100826.09;5056048;28;20049;-67
2022/12/10 03:40:26;;;;;;;39.45;22.10;;;;;;;5.23;56.55;100825.09;5062570;28;20055;-67
2022/12/10 03:42:54;;;;;;;37.33;21.80;;;;;;;5.22;56.70;100826.94;5061253;28;20150;-67
2022/12/10 03:45:22;;;;;;;38.17;22.33;;;;;;;5.22;57.04;100829.59;5059435;28;20064;-68
2022/12/10 03:47:51;;;;;;;36.92;21.08;;;;;;;5.24;56.91;100824.91;5058979;28;20040;-67
2022/12/10 03:50:18;;;;;;;37.65;22.02;;;;;;;5.26;56.61;100823.91;5053527;28;20154;-66
2022/12/10 03:52:46;;;;;;;41.03;23.90;;;;;;;5.26;56.52;100831.88;5048388;28;20052;-67
2022/12/10 03:55:14;;;;;;;38.05;21.48;;;;;;;5.26;56.91;100826.56;5059887;28;20136;-67
2022/12/10 03:57:42;;;;;;;39.53;22.42;;;;;;;5.23;57.00;100825.91;5056716;28;20089;-67
2022/12/10 04:00:11;;;;;;;44.60;23.77;;;;;;;5.23;56.60;100831.25;5058689;28;20051;-68
2022/12/10 04:02:39;;;;;;;37.90;21.00;;;;;;;5.23;57.06;100825.09;5053178;28;20041;-67
2022/12/10 04:05:08;;;;;;;40.38;22.20;;;;;;;5.24;56.82;100830.22;5057537;28;20559;-67
2022/12/10 04:07:36;;;;;;;41.17;22.17;;;;;;;5.23;56.74;100828.59;5051122;28;20370;-67
2022/12/10 04:10:04;;;;;;;41.42;21.98;;;;;;;5.22;56.43;100834.91;5060496;28;20486;-67
2022/12/10 04:12:33;;;;;;;42.90;22.98;;;;;;;5.21;56.64;100835.13;5063388;28;20076;-68
2022/12/10 04:17:46;;;;;;;39.20;22.52;;;;;;;5.21;56.99;100833.28;5059397;28;20045;-68
2022/12/10 04:28:27;;;;;;;40.10;21.80;;;;;;;5.20;57.02;100836.94;5062363;28;20049;-68
2022/12/10 04:30:55;;;;;;;45.05;22.80;;;;;;;5.19;56.80;100843.31;5059415;28;20053;-68
2022/12/10 04:33:23;;;;;;;40.55;22.35;;;;;;;5.18;57.16;100847.00;5057802;28;20073;-67
2022/12/10 04:35:52;;;;;;;41.15;22.17;;;;;;;5.19;56.98;100847.81;5054294;28;20056;-68
2022/12/10 04:38:19;;;;;;;42.38;22.00;;;;;;;5.16;57.19;100846.34;5060386;28;20049;-68
2022/12/10 04:40:47;;;;;;;40.03;21.70;;;;;;;5.16;56.81;100851.69;5064057;28;20045;-68
2022/12/10 04:43:15;;;;;;;41.63;22.48;;;;;;;5.15;57.46;100851.88;5060414;28;20049;-66
2022/12/10 04:45:42;;;;;;;41.83;22.27;;;;;;;5.13;57.44;100845.91;5056882;28;20135;-68
2022/12/10 04:48:10;;;;;;;38.55;21.30;;;;;;;5.14;57.01;100851.06;5063282;28;20049;-67
2022/12/10 04:50:38;;;;;;;38.38;21.42;;;;;;;5.12;57.14;100855.72;5064820;28;20105;-67
2022/12/10 04:53:07;;;;;;;40.63;21.23;;;;;;;5.12;57.60;100858.41;5055514;28;20049;-67
2022/12/10 04:55:34;;;;;;;40.53;20.48;;;;;;;5.12;57.76;100854.91;5063098;28;20055;-67
2022/12/10 04:58:02;;;;;;;39.10;21.08;;;;;;;5.06;57.25;100845.81;5060826;28;20116;-68
2022/12/10 05:00:30;;;;;;;38.30;21.52;;;;;;;5.10;57.30;100854.28;5062680;28;20041;-68
2022/12/10 05:02:58;;;;;;;39.67;21.98;;;;;;;5.11;57.36;100854.09;5063333;28;20053;-68
2022/12/10 05:05:25;;;;;;;40.22;21.45;;;;;;;5.11;57.56;100854.09;5054505;28;20064;-66
2022/12/10 05:07:53;;;;;;;41.00;21.42;;;;;;;5.10;57.29;100848.94;5061845;28;20061;-67
2022/12/10 05:10:22;;;;;;;39.45;22.20;;;;;;;5.09;57.40;100852.63;5063853;28;20080;-68
2022/12/10 05:12:50;;;;;;;38.80;20.75;;;;;;;5.10;57.39;100851.59;5060153;28;20136;-68
2022/12/10 05:15:17;;;;;;;40.85;22.45;;;;;;;5.07;57.58;100847.47;5053231;28;20052;-67
2022/12/10 05:17:45;;;;;;;41.60;22.23;;;;;;;5.07;57.41;100852.81;5066078;28;20049;-68
2022/12/10 05:20:13;;;;;;;38.78;22.17;;;;;;;5.06;57.33;100853.81;5061770;28;20050;-67
2022/12/10 05:25:27;;;;;;;40.08;22.55;;;;;;;5.08;57.04;100856.28;5067220;28;20045;-68
2022/12/10 05:27:55;;;;;;;39.28;21.92;;;;;;;5.09;57.48;100848.13;5054067;28;20049;-68
2022/12/10 05:30:22;;;;;;;41.70;23.10;;;;;;;5.07;57.47;100846.66;5063174;28;20076;-66
2022/12/10 05:32:50;;;;;;;39.65;22.30;;;;;;;5.07;57.15;100849.31;5065443;28;20050;-68
2022/12/10 05:35:18;;;;;;;36.80;21.35;;;;;;;5.04;57.06;100855.00;5062270;28;20056;-67
2022/12/10 05:37:45;;;;;;;41.50;22.27;;;;;;;5.05;57.72;100857.50;5055767;28;20045;-68
2022/12/10 05:40:13;;;;;;;41.22;22.23;;;;;;;5.05;57.34;100854.81;5058574;28;20049;-68
2022/12/10 05:42:42;;;;;;;40.53;21.75;;;;;;;5.06;57.73;100858.31;5058353;28;20049;-67
2022/12/10 05:45:11;;;;;;;41.40;21.40;;;;;;;5.03;57.23;100848.03;5059671;28;20049;-67
2022/12/10 05:47:38;;;;;;;41.72;22.60;;;;;;;5.03;57.35;100853.34;5059875;28;20191;-67
2022/12/10 05:50:06;;;;;;;40.13;22.30;;;;;;;5.01;57.81;100850.06;5060448;28;20053;-67
2022/12/10 05:52:34;;;;;;;38.17;22.67;;;;;;;5.03;58.15;100856.03;5064201;28;20041;-66
2022/12/10 05:55:02;;;;;;;45.97;23.55;;;;;;;5.01;57.48;100860.72;5061842;28;20536;-67
2022/12/10 05:57:30;;;;;;;41.80;22.38;;;;;;;4.99;57.57;100852.91;5056118;28;20136;-67
2022/12/10 05:59:59;;;;;;;43.33;23.50;;;;;;;5.01;57.70;100856.22;5065661;28;20048;-67
2022/12/10 06:02:27;;;;;;;45.80;24.08;;;;;;;5.01;57.67;100860.72;5061447;28;20068;-67
2022/12/10 06:04:54;;;;;;;43.05;21.75;;;;;;;5.09;57.26;100866.75;4702875;28;10000129;-66
2022/12/10 06:07:22;;;;;;;39.88;22.17;;;;;;;5.20;56.86;100862.78;5058841;28;20052;-67
2022/12/10 06:09:50;;;;;;;41.78;22.63;;;;;;;5.32;56.35;100860.44;5049070;28;20057;-66
2022/12/10 06:12:18;;;;;;;39.83;22.17;;;;;;;5.43;56.09;100858.13;5058381;28;20055;-68
2022/12/10 06:14:47;;;;;;;39.63;23.30;;;;;;;5.61;55.88;100873.69;5056116;28;20063;-67
2022/12/10 06:17:16;;;;;;;42.20;22.73;;;;;;;5.77;55.34;100869.97;5059080;28;20112;-67
2022/12/10 06:19:44;;;;;;;40.10;23.10;;;;;;;5.91;54.67;100863.78;5052635;28;20053;-68
2022/12/10 06:22:11;;;;;;;43.08;23.85;;;;;;;6.03;54.39;100866.75;5056226;28;20059;-67
2022/12/10 06:24:39;;;;;;;41.00;22.15;;;;;;;6.04;54.40;100861.22;5061008;28;20059;-67
2022/12/10 06:27:07;;;;;;;44.85;24.33;;;;;;;5.96;54.26;100860.53;5058560;28;20052;-66
2022/12/10 06:29:34;;;;;;;42.28;24.38;;;;;;;5.87;54.58;100868.63;5057216;28;20061;-66
2022/12/10 06:32:02;;;;;;;45.60;24.23;;;;;;;5.74;55.36;100865.84;5060581;28;20525;-65
2022/12/10 06:34:31;;;;;;;44.70;25.75;;;;;;;5.65;55.33;100874.16;5057565;28;20112;-67
2022/12/10 06:36:59;;;;;;;43.08;23.65;;;;;;;5.55;55.61;100869.94;5059810;28;20071;-66
2022/12/10 06:39:27;;;;;;;44.72;24.73;;;;;;;5.46;56.14;100872.91;5059257;28;20053;-66
2022/12/10 06:41:54;;;;;;;45.47;24.48;;;;;;;5.41;55.67;100873.47;5056675;28;20055;-67
2022/12/10 06:44:25;;;;;;;45.80;25.92;;;;;;;5.39;56.41;100877.34;5045174;28;20057;-69
2022/12/10 06:46:53;;;;;;;42.40;23.40;;;;;;;5.35;56.38;100879.56;5047691;28;20411;-67
2022/12/10 06:49:21;;;;;;;45.88;25.50;;;;;;;5.31;56.78;100891.59;5056331;28;20102;-67
2022/12/10 06:51:50;;;;;;;44.35;23.92;;;;;;;5.30;56.88;100883.78;5053884;28;20060;-67
2022/12/10 06:54:18;;;;;;;43.72;23.63;;;;;;;5.27;56.46;100890.31;5050799;28;20053;-66
2022/12/10 06:56:45;;;;;;;45.63;25.85;;;;;;;5.25;56.90;100887.00;5060714;28;20139;-67
2022/12/10 06:59:13;;;;;;;40.08;24.00;;;;;;;5.20;57.02;100890.22;5056621;28;20060;-65
2022/12/10 07:01:41;;;;;;;40.17;22.55;;;;;;;5.21;57.14;100899.88;5051275;28;20139;-67
2022/12/10 07:04:09;;;;;;;41.97;23.25;;;;;;;5.18;57.46;100892.28;5052393;28;20063;-65
2022/12/10 07:06:37;;;;;;;38.15;22.35;;;;;;;5.18;57.11;100904.78;5052791;28;20113;-67
2022/12/10 07:09:06;;;;;;;37.05;22.58;;;;;;;5.18;57.71;100904.78;5057147;28;20301;-69
2022/12/10 07:11:34;;;;;;;40.08;23.05;;;;;;;5.16;56.91;100907.63;5059919;28;20490;-68
2022/12/10 07:14:01;;;;;;;40.30;23.17;;;;;;;5.17;57.93;100919.94;5048189;28;20113;-66
2022/12/10 07:16:31;;;;;;;38.47;21.38;;;;;;;5.25;57.41;100916.31;5053224;28;20053;-68
2022/12/10 07:19:01;;;;;;;37.80;20.77;;;;;;;5.41;56.71;100921.44;5057352;28;20076;-69
2022/12/10 07:21:31;;;;;;;40.60;22.45;;;;;;;5.57;56.03;100912.41;5049494;28;20054;-71
2022/12/10 07:24:03;;;;;;;42.50;22.40;;;;;;;5.72;55.44;100918.53;5042091;28;20095;-70
2022/12/10 07:26:34;;;;;;;40.22;22.27;;;;;;;5.92;55.07;100920.63;5060604;28;20048;-68
2022/12/10 07:29:04;;;;;;;41.88;22.13;;;;;;;6.00;54.92;100901.81;5051328;28;20067;-67
2022/12/10 07:31:32;;;;;;;41.20;22.00;;;;;;;6.17;54.27;100914.72;5054101;28;20060;-69
2022/12/10 07:34:00;;;;;;;35.03;19.92;;;;;;;6.31;53.98;100917.50;5053686;28;20075;-69
2022/12/10 07:36:28;;;;;;;34.70;20.65;;;;;;;6.46;53.70;100920.91;5058746;28;20140;-68
2022/12/10 07:38:56;;;;;;;45.47;23.15;;;;;;;6.43;53.75;100930.13;5058881;28;20059;-67
2022/12/10 07:41:25;;;;;;;39.38;22.00;;;;;;;6.33;53.94;100921.63;5059606;28;20041;-66
2022/12/10 07:43:54;;;;;;;39.50;22.90;;;;;;;6.34;53.59;100919.78;5053479;28;20144;-67
2022/12/10 07:46:24;;;;;;;41.30;21.60;;;;;;;6.38;53.74;100923.72;5040200;28;20063;-67
2022/12/10 07:48:51;;;;;;;43.33;21.95;;;;;;;6.37;53.41;100927.41;5054090;28;20094;-67
2022/12/10 07:51:22;;;;;;;39.38;21.65;;;;;;;6.26;54.27;100920.75;5055895;28;20045;-67
2022/12/10 07:53:52;;;;;;;41.90;23.75;;;;;;;6.18;53.98;100928.88;5055196;28;20045;-67
2022/12/10 07:56:21;;;;;;;46.10;24.25;;;;;;;6.04;54.77;100932.44;5058954;28;20048;-66
2022/12/10 07:58:49;;;;;;;42.75;23.35;;;;;;;5.92;55.15;100934.78;5051960;28;20045;-66
2022/12/10 08:01:22;;;;;;;41.85;22.80;;;;;;;5.84;55.43;100938.34;5058497;28;20144;-65
2022/12/10 08:03:50;;;;;;;44.15;22.85;;;;;;;5.75;55.48;100947.50;5053993;28;20052;-66
2022/12/10 08:06:20;;;;;;;43.65;23.50;;;;;;;5.66;55.62;100935.28;5055620;28;20049;-64
2022/12/10 08:08:48;;;;;;;46.58;24.20;;;;;;;5.59;55.91;100942.38;5059482;28;20045;-66
2022/12/10 08:11:19;;;;;;;47.03;24.92;;;;;;;5.54;55.77;100942.94;5057853;28;20052;-64
2022/12/10 08:13:47;;;;;;;40.35;21.58;;;;;;;5.50;56.59;100941.66;5054173;28;20152;-65
2022/12/10 08:16:26;;;;;;;47.92;24.52;;;;;;;5.47;56.57;100943.88;5053699;28;20148;-65
2022/12/10 08:18:55;;;;;;;48.70;23.58;;;;;;;5.43;56.33;100948.75;5057513;28;20054;-64
2022/12/10 08:21:26;;;;;;;39.53;21.63;;;;;;;5.39;56.79;100958.13;5060847;28;20056;-66
2022/12/10 08:23:54;;;;;;;47.50;24.20;;;;;;;5.37;56.41;100960.13;4706056;28;10000564;-65
2022/12/10 08:26:26;;;;;;;46.00;23.98;;;;;;;5.33;56.78;100966.03;5050652;28;20109;-67
2022/12/10 08:28:55;;;;;;;49.00;24.30;;;;;;;5.30;56.91;100961.88;5053052;28;20136;-67
2022/12/10 08:31:25;;;;;;;44.45;22.45;;;;;;;5.28;57.09;100968.41;5049707;28;20132;-67
2022/12/10 08:33:53;;;;;;;43.50;22.40;;;;;;;5.26;57.18;100965.09;5053793;28;20076;-66
2022/12/10 08:36:21;;;;;;;46.97;22.38;;;;;;;5.24;56.89;100973.28;5038602;28;20049;-66
2022/12/10 08:38:49;;;;;;;52.25;24.77;;;;;;;5.22;57.05;100975.31;5054433;28;20045;-67
2022/12/10 08:41:19;;;;;;;46.85;24.33;;;;;;;5.20;57.63;100980.03;5052851;28;20079;-68
2022/12/10 08:43:47;;;;;;;47.78;24.60;;;;;;;5.19;57.54;100978.38;5057397;28;20053;-65
2022/12/10 08:46:15;;;;;;;52.63;25.88;;;;;;;5.17;57.37;100978.56;5057259;28;20057;-66
2022/12/10 08:48:45;;;;;;;42.90;22.77;;;;;;;5.18;57.09;100984.72;5057734;28;20071;-65
2022/12/10 08:51:18;;;;;;;43.58;22.27;;;;;;;5.17;57.49;100988.38;5042408;28;20056;-66
2022/12/10 08:53:46;;;;;;;47.22;24.23;;;;;;;5.16;57.25;100986.72;5054249;28;20072;-66
2022/12/10 08:56:14;;;;;;;46.33;23.98;;;;;;;5.15;57.21;100993.91;5052761;28;20108;-65
2022/12/10 08:58:42;;;;;;;46.47;23.88;;;;;;;5.14;57.16;100994.91;5047564;28;20045;-65
2022/12/10 09:01:12;;;;;;;46.60;23.10;;;;;;;5.13;57.64;100993.25;5053608;28;20135;-66
2022/12/10 09:03:40;;;;;;;45.05;22.17;;;;;;;5.14;57.48;100994.06;5057940;28;20056;-66
2022/12/10 09:06:11;;;;;;;46.83;23.35;;;;;;;5.16;57.82;100997.38;5053836;28;20049;-65
2022/12/10 09:08:39;;;;;;;50.60;24.67;;;;;;;5.14;57.83;100994.06;5056558;28;20135;-65
2022/12/10 09:11:08;;;;;;;45.78;22.80;;;;;;;5.13;57.82;100993.25;5044649;28;20136;-66
2022/12/10 09:13:36;;;;;;;43.78;23.30;;;;;;;5.11;57.61;100992.59;5053713;28;20478;-66
2022/12/10 09:16:06;;;;;;;48.53;24.17;;;;;;;5.12;57.81;100999.59;5056095;28;20145;-67
2022/12/10 09:18:34;;;;;;;61.08;27.88;;;;;;;5.06;57.22;101004.81;5053968;28;20144;-66
2022/12/10 09:21:07;;;;;;;60.95;29.48;;;;;;;4.82;57.96;101001.38;5055204;28;20076;-65
2022/12/10 09:23:36;;;;;;;66.63;29.77;;;;;;;4.65;58.88;100999.88;5053787;28;20052;-65
2022/12/10 09:26:07;;;;;;;59.15;28.35;;;;;;;4.73;58.97;101004.28;5060288;28;20049;-67
2022/12/10 09:28:35;;;;;;;55.95;25.85;;;;;;;4.92;59.00;101001.13;5055788;28;20047;-67
2022/12/10 09:31:04;;;;;;;56.95;26.58;;;;;;;5.10;57.91;101000.78;5061353;28;20053;-66
2022/12/10 09:33:42;;;;;;;59.20;26.73;;;;;;;5.29;57.42;101000.22;5047993;28;20091;-66
2022/12/10 09:36:11;;;;;;;55.63;26.88;;;;;;;5.52;56.73;101006.25;5058058;28;20113;-67
2022/12/10 09:38:43;;;;;;;59.53;27.05;;;;;;;5.72;56.15;101008.38;5052619;28;20088;-67
2022/12/10 09:41:34;;;;;;;56.65;26.63;;;;;;;5.88;55.35;101013.50;5063066;28;20056;-66
2022/12/10 09:44:09;;;;;;;63.03;25.65;;;;;;;6.01;55.11;101016.34;5053496;28;20064;-69
2022/12/10 09:46:49;;;;;;;58.30;25.48;;;;;;;5.97;55.10;101014.25;5062642;28;20051;-71
2022/12/10 09:49:29;;;;;;;51.67;25.23;;;;;;;5.83;55.33;101014.03;5053061;28;20060;-70
2022/12/10 09:52:01;;;;;;;56.65;26.98;;;;;;;5.72;55.92;101019.03;5056097;28;20136;-70
2022/12/10 09:54:34;;;;;;;48.35;24.52;;;;;;;5.63;56.21;101022.81;5052668;28;20053;-72
2022/12/10 09:57:04;;;;;;;55.47;25.33;;;;;;;5.57;56.75;101030.53;5048451;28;20056;-72
2022/12/10 09:59:37;;;;;;;52.70;23.77;;;;;;;5.49;56.69;101022.63;5049470;28;20128;-70
2022/12/10 10:02:22;;;;;;;56.08;24.85;;;;;;;5.48;56.67;101030.81;5061936;28;20080;-72
2022/12/10 10:04:51;;;;;;;52.78;24.95;;;;;;;5.47;57.19;101032.66;5061506;28;20564;-71
2022/12/10 10:07:22;;;;;;;52.53;24.33;;;;;;;5.43;57.40;101031.38;5060324;28;20045;-72
2022/12/10 10:09:55;;;;;;;50.38;23.38;;;;;;;5.43;57.50;101030.53;5048209;28;20052;-72
2022/12/10 10:12:23;;;;;;;46.83;23.15;;;;;;;5.43;57.49;101031.38;5047164;28;20047;-72
2022/12/10 10:14:51;;;;;;;49.47;22.85;;;;;;;5.45;57.25;101041.84;5050890;28;20061;-69
2022/12/10 10:17:23;;;;;;;43.38;21.60;;;;;;;5.40;57.50;101033.56;5059997;28;20053;-70
2022/12/10 10:19:59;;;;;;;46.38;23.23;;;;;;;5.42;57.70;101043.03;5064215;28;20049;-69
2022/12/10 10:22:27;;;;;;;46.08;22.80;;;;;;;5.39;57.59;101039.91;5065787;28;20049;-71
2022/12/10 10:24:56;;;;;;;43.35;21.45;;;;;;;5.37;57.31;101033.94;5064451;28;20053;-70
2022/12/10 10:27:27;;;;;;;45.63;22.13;;;;;;;5.34;57.07;101037.78;5062576;28;20087;-70
2022/12/10 10:29:57;;;;;;;47.17;22.33;;;;;;;5.33;57.13;101035.31;5064737;28;20045;-70
2022/12/10 10:32:29;;;;;;;42.55;21.73;;;;;;;5.32;57.44;101042.47;5066148;28;20061;-70
2022/12/10 10:34:59;;;;;;;46.90;22.92;;;;;;;5.21;57.66;101017.09;5059470;28;20059;-71
2022/12/10 10:37:29;;;;;;;42.30;21.27;;;;;;;5.30;57.89;101030.34;5057380;28;20061;-70
2022/12/10 10:39:59;;;;;;;43.25;21.60;;;;;;;5.30;57.83;101033.00;5058962;28;20113;-69
2022/12/10 10:42:36;;;;;;;43.47;21.58;;;;;;;5.32;57.92;101036.31;5046300;28;20069;-72
2022/12/10 10:45:06;;;;;;;41.95;21.23;;;;;;;5.31;57.80;101034.66;5059500;28;20108;-73
2022/12/10 10:47:36;;;;;;;46.22;22.15;;;;;;;5.29;57.50;101039.34;5055004;28;20041;-71
2022/12/10 10:50:06;;;;;;;45.15;21.70;;;;;;;5.31;57.86;101043.47;5053810;28;20049;-77
2022/12/10 10:52:37;;;;;;;43.30;21.45;;;;;;;5.30;57.72;101041.00;5065351;28;20075;-78
2022/12/10 10:55:34;;;;;;;44.70;22.02;;;;;;;5.28;57.59;101041.19;5050043;28;20046;-77
2022/12/10 10:58:02;;;;;;;46.13;23.23;;;;;;;5.06;57.98;101042.94;5050815;28;20069;-69
2022/12/10 11:00:30;;;;;;;48.13;23.67;;;;;;;5.07;58.66;101038.44;5061706;28;20072;-73
2022/12/10 11:02:58;;;;;;;48.00;23.25;;;;;;;5.17;57.87;101036.34;5062534;28;20052;-70
2022/12/10 11:05:29;;;;;;;53.47;24.90;;;;;;;5.22;58.23;101028.59;5058039;28;20060;-70
2022/12/10 11:08:05;;;;;;;48.63;23.05;;;;;;;5.29;57.74;101026.84;5053110;28;20060;-71
2022/12/10 11:10:37;;;;;;;51.28;22.70;;;;;;;5.31;57.54;101024.00;5058206;28;20045;-70
2022/12/10 11:13:06;;;;;;;47.97;22.60;;;;;;;5.30;58.16;101017.03;5060882;28;20048;-68
2022/12/10 11:15:39;;;;;;;44.47;22.00;;;;;;;5.38;57.49;101023.09;5062273;28;20045;-70
2022/12/10 11:18:25;;;;;;;44.58;23.02;;;;;;;5.46;58.14;101027.50;5061853;28;20067;-72
2022/12/10 11:21:02;;;;;;;48.35;23.38;;;;;;;5.60;57.90;101032.00;5057807;28;20056;-69
2022/12/10 11:23:33;;;;;;;48.22;22.38;;;;;;;5.79;56.87;101019.94;5057649;28;20080;-70
2022/12/10 11:26:16;;;;;;;52.05;24.38;;;;;;;6.00;55.92;101019.19;5062232;28;20117;-70
2022/12/10 11:28:58;;;;;;;46.47;21.40;;;;;;;6.19;55.47;101007.91;5059070;28;20185;-68
2022/12/10 11:31:51;;;;;;;46.80;21.23;;;;;;;6.34;54.81;101006.03;5058710;28;20057;-68
2022/12/10 11:34:25;;;;;;;48.65;21.83;;;;;;;6.36;55.10;101011.16;5060620;28;20037;-69
2022/12/10 11:37:04;;;;;;;44.35;20.70;;;;;;;6.31;55.33;101009.06;5063616;28;20565;-69
2022/12/10 11:39:51;;;;;;;44.10;21.38;;;;;;;6.25;55.59;101009.84;5057832;28;20045;-70
2022/12/10 11:42:31;;;;;;;42.25;19.58;;;;;;;6.15;55.68;101015.47;5052613;28;20052;-69
2022/12/10 11:45:07;;;;;;;41.20;20.70;;;;;;;6.09;55.85;101015.41;5056664;28;20057;-68